createdAt,value
2023-05-23T00:02:13.858Z,100.00
2023-05-23T00:04:42.981Z,100.00
2023-05-23T00:07:11.137Z,100.00
2023-05-23T00:09:38.933Z,100.00
2023-05-23T00:12:08.938Z,100.00
2023-05-23T00:14:36.702Z,100.00
2023-05-23T00:17:05.275Z,100.00
2023-05-23T00:19:36.442Z,100.00
2023-05-23T00:22:04.629Z,100.00
2023-05-23T00:24:32.379Z,100.00
2023-05-23T00:27:01.076Z,100.00
2023-05-23T00:29:30.228Z,100.00
2023-05-23T00:31:58.014Z,100.00
2023-05-23T00:34:26.059Z,100.00
2023-05-23T00:36:54.306Z,100.00
2023-05-23T00:39:22.114Z,100.00
2023-05-23T00:41:52.996Z,100.00
2023-05-23T00:44:21.360Z,100.00
2023-05-23T00:46:54.490Z,100.00
2023-05-23T00:49:23.056Z,100.00
2023-05-23T00:51:51.852Z,100.00
2023-05-23T00:54:25.726Z,100.00
2023-05-23T00:56:53.603Z,100.00
2023-05-23T00:59:23.286Z,100.00
2023-05-23T01:01:53.725Z,100.00
2023-05-23T01:04:26.365Z,100.00
2023-05-23T01:06:55.658Z,100.00
2023-05-23T01:09:24.741Z,100.00
2023-05-23T01:12:02.543Z,100.00
2023-05-23T01:14:36.468Z,100.00
2023-05-23T01:17:11.636Z,100.00
2023-05-23T01:20:01.043Z,100.00
2023-05-23T01:22:41.509Z,100.00
2023-05-23T01:25:17.602Z,100.00
2023-05-23T01:27:52.294Z,100.00
2023-05-23T01:30:22.080Z,100.00
2023-05-23T01:32:52.541Z,100.00
2023-05-23T01:35:25.753Z,100.00
2023-05-23T01:37:53.999Z,100.00
2023-05-23T01:40:22.467Z,100.00
2023-05-23T01:42:52.937Z,100.00
2023-05-23T01:45:21.833Z,100.00
2023-05-23T01:47:51.708Z,100.00
2023-05-23T01:50:19.816Z,100.00
2023-05-23T01:52:48.674Z,100.00
2023-05-23T01:55:22.666Z,100.00
2023-05-23T01:57:54.666Z,100.00
2023-05-23T02:00:23.242Z,100.00
2023-05-23T02:02:51.285Z,100.00
2023-05-23T02:05:19.227Z,100.00
2023-05-23T02:07:47.312Z,100.00
2023-05-23T02:10:15.180Z,100.00
2023-05-23T02:12:42.960Z,100.00
2023-05-23T02:15:12.539Z,100.00
2023-05-23T02:17:41.463Z,100.00
2023-05-23T02:20:10.986Z,100.00
2023-05-23T02:22:39.755Z,100.00
2023-05-23T02:25:08.987Z,100.00
2023-05-23T02:27:36.796Z,100.00
2023-05-23T02:30:05.249Z,100.00
2023-05-23T02:32:34.541Z,100.00
2023-05-23T02:35:02.330Z,100.00
2023-05-23T02:37:30.300Z,100.00
2023-05-23T02:39:58.125Z,100.00
2023-05-23T02:42:25.979Z,100.00
2023-05-23T02:44:54.033Z,100.00
2023-05-23T02:47:21.882Z,100.00
2023-05-23T02:49:51.069Z,100.00
2023-05-23T02:52:19.084Z,100.00
2023-05-23T02:54:46.851Z,100.00
2023-05-23T02:57:14.909Z,100.00
2023-05-23T02:59:42.901Z,100.00
2023-05-23T03:02:10.900Z,100.00
2023-05-23T03:04:39.154Z,100.00
2023-05-23T03:07:20.410Z,100.00
2023-05-23T03:09:55.196Z,100.00
2023-05-23T03:12:23.221Z,100.00
2023-05-23T03:14:51.032Z,100.00
2023-05-23T03:17:18.819Z,100.00
2023-05-23T03:19:46.881Z,100.00
2023-05-23T03:22:16.003Z,100.00
2023-05-23T03:24:44.076Z,100.00
2023-05-23T03:27:12.092Z,100.00
2023-05-23T03:29:39.887Z,100.00
2023-05-23T03:32:08.161Z,100.00
2023-05-23T03:34:36.627Z,100.00
2023-05-23T03:37:04.571Z,100.00
2023-05-23T03:39:33.881Z,100.00
2023-05-23T03:42:01.964Z,100.00
2023-05-23T03:44:29.742Z,100.00
2023-05-23T03:46:57.537Z,100.00
2023-05-23T03:49:25.536Z,100.00
2023-05-23T03:51:53.424Z,100.00
2023-05-23T03:54:21.189Z,100.00
2023-05-23T03:56:50.812Z,100.00
2023-05-23T03:59:19.449Z,100.00
2023-05-23T04:01:47.265Z,100.00
2023-05-23T04:04:17.292Z,100.00
2023-05-23T04:06:45.437Z,100.00
2023-05-23T04:09:13.948Z,100.00
2023-05-23T04:11:42.515Z,100.00
2023-05-23T04:14:12.498Z,100.00
2023-05-23T04:16:41.890Z,100.00
2023-05-23T04:19:10.108Z,100.00
2023-05-23T04:21:37.911Z,100.00
2023-05-23T04:24:06.136Z,100.00
2023-05-23T04:26:36.243Z,100.00
2023-05-23T04:29:06.130Z,100.00
2023-05-23T04:31:35.665Z,100.00
2023-05-23T04:34:03.904Z,100.00
2023-05-23T04:36:31.756Z,100.00
2023-05-23T04:38:59.736Z,100.00
2023-05-23T04:41:28.232Z,100.00
2023-05-23T04:43:58.107Z,100.00
2023-05-23T04:46:26.852Z,100.00
2023-05-23T04:48:56.486Z,100.00
2023-05-23T04:51:25.121Z,100.00
2023-05-23T04:53:53.619Z,100.00
2023-05-23T04:56:22.298Z,100.00
2023-05-23T04:58:50.100Z,100.00
2023-05-23T05:01:18.387Z,100.00
2023-05-23T05:03:47.434Z,100.00
2023-05-23T05:06:17.633Z,100.00
2023-05-23T05:08:46.051Z,100.00
2023-05-23T05:11:13.965Z,100.00
2023-05-23T05:13:41.762Z,100.00
2023-05-23T05:16:09.885Z,100.00
2023-05-23T05:18:37.701Z,100.00
2023-05-23T05:21:06.528Z,100.00
2023-05-23T05:23:37.105Z,100.00
2023-05-23T05:26:05.631Z,100.00
2023-05-23T05:28:33.455Z,100.00
2023-05-23T05:31:05.055Z,100.00
2023-05-23T05:33:36.117Z,100.00
2023-05-23T05:36:04.866Z,100.00
2023-05-23T05:38:32.651Z,100.00
2023-05-23T05:41:01.783Z,100.00
2023-05-23T05:43:30.062Z,100.00
2023-05-23T05:45:57.916Z,100.00
2023-05-23T05:48:25.968Z,100.00
2023-05-23T05:50:53.762Z,100.00
2023-05-23T05:53:21.544Z,100.00
2023-05-23T05:55:49.694Z,100.00
2023-05-23T05:58:19.204Z,100.00
2023-05-23T06:00:46.969Z,100.00
2023-05-23T06:03:15.820Z,100.00
2023-05-23T06:05:43.845Z,100.00
2023-05-23T06:08:11.641Z,100.00
2023-05-23T06:10:40.240Z,100.00
2023-05-23T06:13:08.383Z,100.00
2023-05-23T06:15:37.558Z,98.01
2023-05-23T06:18:05.860Z,96.71
2023-05-23T06:20:33.909Z,96.39
2023-05-23T06:23:05.468Z,94.72
2023-05-23T06:25:33.882Z,93.90
2023-05-23T06:28:01.784Z,93.96
2023-05-23T06:30:30.698Z,93.74
2023-05-23T06:33:00.279Z,90.55
2023-05-23T06:35:28.081Z,89.87
2023-05-23T06:37:55.865Z,88.08
2023-05-23T06:40:24.059Z,87.46
2023-05-23T06:42:51.895Z,85.17
2023-05-23T06:45:19.976Z,85.56
2023-05-23T06:47:48.312Z,86.46
2023-05-23T06:50:20.134Z,85.72
2023-05-23T06:52:48.270Z,85.60
2023-05-23T06:55:19.358Z,82.68
2023-05-23T06:57:51.890Z,82.44
2023-05-23T07:00:21.299Z,82.04
2023-05-23T07:02:49.592Z,82.35
2023-05-23T07:05:19.414Z,84.27
2023-05-23T07:07:48.326Z,84.88
2023-05-23T07:10:17.295Z,83.56
2023-05-23T07:12:46.216Z,85.45
2023-05-23T07:15:16.539Z,85.12
2023-05-23T07:17:46.512Z,87.65
2023-05-23T07:20:15.564Z,85.29
2023-05-23T07:22:45.759Z,84.67
2023-05-23T07:25:14.891Z,84.31
2023-05-23T07:27:43.744Z,82.17
2023-05-23T07:30:12.508Z,82.09
2023-05-23T07:32:40.448Z,77.68
2023-05-23T07:35:09.170Z,77.31
2023-05-23T07:37:36.994Z,75.89
2023-05-23T07:40:09.436Z,75.55
2023-05-23T07:42:37.653Z,75.29
2023-05-23T07:45:06.043Z,74.11
2023-05-23T07:47:33.823Z,74.50
2023-05-23T07:50:02.436Z,74.21
2023-05-23T07:52:31.210Z,72.25
2023-05-23T07:54:59.434Z,72.92
2023-05-23T07:57:28.842Z,72.08
2023-05-23T07:59:56.613Z,73.05
2023-05-23T08:02:24.425Z,72.04
2023-05-23T08:04:53.404Z,70.71
2023-05-23T08:07:21.909Z,69.79
2023-05-23T08:09:49.960Z,67.79
2023-05-23T08:12:18.065Z,67.54
2023-05-23T08:14:51.604Z,67.44
2023-05-23T08:17:20.669Z,67.39
2023-05-23T08:19:49.473Z,68.95
2023-05-23T08:22:19.206Z,69.74
2023-05-23T08:24:49.121Z,69.41
2023-05-23T08:27:19.326Z,70.49
2023-05-23T08:29:49.829Z,70.75
2023-05-23T08:32:18.224Z,71.26
2023-05-23T08:34:46.565Z,71.63
2023-05-23T08:37:16.500Z,72.87
2023-05-23T08:39:45.308Z,72.99
2023-05-23T08:42:15.184Z,71.86
2023-05-23T08:44:43.823Z,71.42
2023-05-23T08:47:16.556Z,70.72
2023-05-23T08:49:46.561Z,71.61
2023-05-23T08:52:17.783Z,72.01
2023-05-23T08:54:46.702Z,72.57
2023-05-23T08:57:16.217Z,72.65
2023-05-23T08:59:46.910Z,74.05
2023-05-23T09:02:18.420Z,73.81
2023-05-23T09:04:46.790Z,72.69
2023-05-23T09:07:19.026Z,72.42
2023-05-23T09:09:51.034Z,72.74
2023-05-23T09:12:22.461Z,73.09
2023-05-23T09:14:50.420Z,72.98
2023-05-23T09:17:20.900Z,72.50
2023-05-23T09:19:49.561Z,70.75
2023-05-23T09:22:18.139Z,70.08
2023-05-23T09:24:45.970Z,70.73
2023-05-23T09:27:16.240Z,71.30
2023-05-23T09:29:47.383Z,72.23
2023-05-23T09:32:18.971Z,72.27
2023-05-23T09:34:58.865Z,73.64
2023-05-23T09:37:31.394Z,72.70
2023-05-23T09:40:01.748Z,71.42
2023-05-23T09:42:33.916Z,71.35
2023-05-23T09:45:04.302Z,71.15
2023-05-23T09:47:33.091Z,72.12
2023-05-23T09:50:02.239Z,72.29
2023-05-23T09:52:37.287Z,73.12
2023-05-23T09:55:06.732Z,73.27
2023-05-23T09:57:37.182Z,72.51
2023-05-23T10:00:08.606Z,72.29
2023-05-23T10:02:56.497Z,73.29
2023-05-23T10:05:34.707Z,73.69
2023-05-23T10:08:03.938Z,72.89
2023-05-23T10:10:33.790Z,74.41
2023-05-23T10:13:05.255Z,72.35
2023-05-23T10:15:40.034Z,72.55
2023-05-23T10:18:15.326Z,70.07
2023-05-23T10:20:50.536Z,65.86
2023-05-23T10:23:19.220Z,67.81
2023-05-23T10:25:49.327Z,67.63
2023-05-23T10:28:17.784Z,67.26
2023-05-23T10:30:47.986Z,66.08
2023-05-23T10:33:19.015Z,65.02
2023-05-23T10:35:58.837Z,65.32
2023-05-23T10:38:36.876Z,65.61
2023-05-23T10:41:12.525Z,66.87
2023-05-23T10:43:50.012Z,66.87
2023-05-23T10:46:21.658Z,67.86
2023-05-23T10:48:55.228Z,66.42
2023-05-23T10:51:24.991Z,64.89
2023-05-23T10:53:55.510Z,66.12
2023-05-23T10:56:24.537Z,67.63
2023-05-23T10:58:55.091Z,68.04
2023-05-23T11:01:24.452Z,68.67
2023-05-23T11:03:55.677Z,69.43
2023-05-23T11:06:33.719Z,69.72
2023-05-23T11:09:07.678Z,70.32
2023-05-23T11:11:59.106Z,69.58
2023-05-23T11:14:34.680Z,69.54
2023-05-23T11:17:17.712Z,66.11
2023-05-23T11:20:01.181Z,65.80
2023-05-23T11:22:31.198Z,65.21
2023-05-23T11:25:00.165Z,65.63
2023-05-23T11:27:29.387Z,64.03
2023-05-23T11:30:08.946Z,63.39
2023-05-23T11:32:38.172Z,63.45
2023-05-23T11:35:08.170Z,64.00
2023-05-23T11:37:39.970Z,63.74
2023-05-23T11:40:28.269Z,62.29
2023-05-23T11:42:56.307Z,61.51
2023-05-23T11:45:24.625Z,61.41
2023-05-23T11:47:52.801Z,61.54
2023-05-23T11:50:21.590Z,61.19
2023-05-23T11:52:52.426Z,61.67
2023-05-23T11:55:21.160Z,61.80
2023-05-23T11:57:49.413Z,61.87
2023-05-23T12:00:19.285Z,61.47
2023-05-23T12:02:49.055Z,59.75
2023-05-23T12:05:17.499Z,58.21
2023-05-23T12:07:46.434Z,58.63
2023-05-23T12:10:17.455Z,59.68
2023-05-23T12:12:46.151Z,58.15
2023-05-23T12:15:14.483Z,57.78
2023-05-23T12:17:46.079Z,57.71
2023-05-23T12:20:14.345Z,55.82
2023-05-23T12:22:42.995Z,57.52
2023-05-23T12:25:11.354Z,53.48
2023-05-23T12:27:43.909Z,55.09
2023-05-23T12:30:14.849Z,53.07
2023-05-23T12:32:43.977Z,53.83
2023-05-23T12:35:14.138Z,53.97
2023-05-23T12:37:43.116Z,55.06
2023-05-23T12:40:14.276Z,53.77
2023-05-23T12:42:50.740Z,54.55
2023-05-23T12:45:18.866Z,54.74
2023-05-23T12:47:46.795Z,55.67
2023-05-23T12:50:14.634Z,55.06
2023-05-23T12:52:42.677Z,55.60
2023-05-23T12:55:11.626Z,55.38
2023-05-23T12:57:39.752Z,53.79
2023-05-23T13:00:10.736Z,53.77
2023-05-23T13:02:39.426Z,54.84
2023-05-23T13:05:08.113Z,55.41
2023-05-23T13:07:36.196Z,55.43
2023-05-23T13:10:04.889Z,53.53
2023-05-23T13:12:32.972Z,54.35
2023-05-23T13:15:03.081Z,55.99
2023-05-23T13:17:32.240Z,56.04
2023-05-23T13:20:00.050Z,54.65
2023-05-23T13:22:28.161Z,57.00
2023-05-23T13:24:55.976Z,64.36
2023-05-23T13:27:23.827Z,62.29
2023-05-23T13:29:51.874Z,63.91
2023-05-23T13:32:19.656Z,64.16
2023-05-23T13:34:48.778Z,66.69
2023-05-23T13:37:16.877Z,78.07
2023-05-23T13:39:44.654Z,89.40
2023-05-23T13:42:12.678Z,98.22
2023-05-23T13:44:40.708Z,100.00
2023-05-23T13:47:13.310Z,100.00
2023-05-23T13:49:42.122Z,100.00
2023-05-23T13:52:11.440Z,100.00
2023-05-23T13:54:39.492Z,100.00
2023-05-23T13:57:07.885Z,100.00
2023-05-23T13:59:35.732Z,100.00
2023-05-23T14:02:03.586Z,100.00
2023-05-23T14:04:31.714Z,100.00
2023-05-23T14:06:59.681Z,100.00
2023-05-23T14:09:28.815Z,100.00
2023-05-23T14:11:56.866Z,100.00
2023-05-23T14:14:24.793Z,100.00
2023-05-23T14:16:52.890Z,100.00
2023-05-23T14:19:21.412Z,100.00
2023-05-23T14:21:49.271Z,100.00
2023-05-23T14:24:17.038Z,100.00
2023-05-23T14:26:46.954Z,100.00
2023-05-23T14:29:14.813Z,100.00
2023-05-23T14:31:42.891Z,100.00
2023-05-23T14:34:11.455Z,100.00
2023-05-23T14:36:39.298Z,100.00
2023-05-23T14:39:09.848Z,100.00
2023-05-23T14:41:38.736Z,100.00
2023-05-23T14:44:08.019Z,100.00
2023-05-23T14:46:35.985Z,100.00
2023-05-23T14:49:04.182Z,100.00
2023-05-23T14:51:44.131Z,100.00
2023-05-23T14:54:15.951Z,100.00
2023-05-23T14:56:43.839Z,100.00
2023-05-23T14:59:13.046Z,100.00
2023-05-23T15:01:41.751Z,100.00
2023-05-23T15:04:10.287Z,100.00
2023-05-23T15:06:39.076Z,100.00
2023-05-23T15:09:09.426Z,100.00
2023-05-23T15:11:38.699Z,100.00
2023-05-23T15:14:06.649Z,100.00
2023-05-23T15:16:36.792Z,100.00
2023-05-23T15:19:05.827Z,100.00
2023-05-23T15:21:34.043Z,100.00
2023-05-23T15:24:01.907Z,100.00
2023-05-23T15:26:30.809Z,100.00
2023-05-23T15:28:58.697Z,100.00
2023-05-23T15:31:26.803Z,100.00
2023-05-23T15:33:56.241Z,100.00
2023-05-23T15:36:24.105Z,100.00
2023-05-23T15:38:51.904Z,100.00
2023-05-23T15:41:20.015Z,100.00
2023-05-23T15:43:47.830Z,100.00
2023-05-23T15:46:15.823Z,100.00
2023-05-23T15:48:43.833Z,100.00
2023-05-23T15:51:13.315Z,100.00
2023-05-23T15:53:58.899Z,100.00
2023-05-23T15:56:28.852Z,100.00
2023-05-23T15:58:56.972Z,100.00
2023-05-23T16:01:24.798Z,100.00
2023-05-23T16:03:53.056Z,100.00
2023-05-23T16:06:23.705Z,100.00
2023-05-23T16:08:51.515Z,100.00
2023-05-23T16:11:19.603Z,100.00
2023-05-23T16:13:47.392Z,100.00
2023-05-23T16:16:15.295Z,100.00
2023-05-23T16:18:43.383Z,100.00
2023-05-23T16:21:11.632Z,100.00
2023-05-23T16:23:40.757Z,100.00
2023-05-23T16:26:08.771Z,100.00
2023-05-23T16:28:36.545Z,100.00
2023-05-23T16:31:04.494Z,100.00
2023-05-23T16:33:32.522Z,100.00
2023-05-23T16:36:00.298Z,100.00
2023-05-23T16:38:28.096Z,100.00
2023-05-23T16:40:57.459Z,100.00
2023-05-23T16:43:25.684Z,100.00
2023-05-23T16:45:53.561Z,100.00
2023-05-23T16:48:22.169Z,100.00
2023-05-23T16:50:50.098Z,100.00
2023-05-23T16:53:17.876Z,100.00
2023-05-23T16:55:46.549Z,100.00
2023-05-23T16:58:17.479Z,100.00
2023-05-23T17:00:46.682Z,100.00
2023-05-23T17:03:14.573Z,100.00
2023-05-23T17:05:42.663Z,100.00
2023-05-23T17:08:10.992Z,100.00
2023-05-23T17:10:38.977Z,100.00
2023-05-23T17:13:06.838Z,100.00
2023-05-23T17:15:37.672Z,100.00
2023-05-23T17:18:05.730Z,100.00
2023-05-23T17:20:33.632Z,100.00
2023-05-23T17:23:01.677Z,100.00
2023-05-23T17:25:29.462Z,100.00
2023-05-23T17:27:57.485Z,100.00
2023-05-23T17:30:25.258Z,100.00
2023-05-23T17:32:54.411Z,100.00
2023-05-23T17:35:23.495Z,100.00
2023-05-23T17:37:52.491Z,100.00
2023-05-23T17:40:20.757Z,100.00
2023-05-23T17:42:48.768Z,100.00
2023-05-23T17:45:16.638Z,100.00
2023-05-23T17:47:44.466Z,100.00
2023-05-23T17:50:14.143Z,100.00
2023-05-23T17:52:42.572Z,100.00
2023-05-23T17:55:10.924Z,100.00
2023-05-23T17:57:38.925Z,100.00
2023-05-23T18:00:08.120Z,100.00
2023-05-23T18:02:35.954Z,100.00
2023-05-23T18:05:04.864Z,100.00
2023-05-23T18:07:35.081Z,100.00
2023-05-23T18:10:03.386Z,100.00
2023-05-23T18:12:31.422Z,100.00
2023-05-23T18:14:59.251Z,100.00
2023-05-23T18:17:27.160Z,100.00
2023-05-23T18:19:55.345Z,100.00
2023-05-23T18:22:23.139Z,100.00
2023-05-23T18:24:52.694Z,100.00
2023-05-23T18:27:20.709Z,100.00
2023-05-23T18:29:48.489Z,100.00
2023-05-23T18:32:16.403Z,100.00
2023-05-23T18:34:44.473Z,100.00
2023-05-23T18:37:12.272Z,100.00
2023-05-23T18:39:40.057Z,100.00
2023-05-23T18:42:09.560Z,100.00
2023-05-23T18:44:37.340Z,100.00
2023-05-23T18:47:05.468Z,100.00
2023-05-23T18:49:33.521Z,100.00
2023-05-23T18:52:01.806Z,100.00
2023-05-23T18:54:29.576Z,100.00
2023-05-23T18:56:57.601Z,100.00
2023-05-23T18:59:26.991Z,100.00
2023-05-23T19:01:55.108Z,100.00
2023-05-23T19:04:23.128Z,100.00
2023-05-23T19:06:51.354Z,100.00
2023-05-23T19:09:19.165Z,100.00
2023-05-23T19:11:47.178Z,100.00
2023-05-23T19:14:14.997Z,100.00
2023-05-23T19:16:44.627Z,100.00
2023-05-23T19:19:12.809Z,100.00
2023-05-23T19:21:40.887Z,100.00
2023-05-23T19:24:09.232Z,100.00
2023-05-23T19:26:40.011Z,100.00
2023-05-23T19:29:07.821Z,100.00
2023-05-23T19:31:38.056Z,100.00
2023-05-23T19:34:08.226Z,100.00
2023-05-23T19:36:36.632Z,100.00
2023-05-23T19:39:04.929Z,100.00
2023-05-23T19:41:33.549Z,100.00
2023-05-23T19:44:01.791Z,100.00
2023-05-23T19:46:29.851Z,100.00
2023-05-23T19:48:58.474Z,100.00
2023-05-23T19:51:27.647Z,100.00
2023-05-23T19:53:55.781Z,100.00
2023-05-23T19:56:25.263Z,100.00
2023-05-23T19:58:53.059Z,100.00
2023-05-23T20:01:21.360Z,100.00
2023-05-23T20:03:49.603Z,100.00
2023-05-23T20:06:17.622Z,100.00
2023-05-23T20:08:47.039Z,100.00
2023-05-23T20:11:15.082Z,100.00
2023-05-23T20:13:42.916Z,100.00
2023-05-23T20:16:11.038Z,100.00
2023-05-23T20:18:39.128Z,100.00
2023-05-23T20:21:07.271Z,100.00
2023-05-23T20:23:35.376Z,100.00
2023-05-23T20:26:04.712Z,100.00
2023-05-23T20:28:32.838Z,100.00
2023-05-23T20:31:00.897Z,100.00
2023-05-23T20:33:28.821Z,100.00
2023-05-23T20:35:56.677Z,100.00
2023-05-23T20:38:25.400Z,100.00
2023-05-23T20:40:53.525Z,100.00
2023-05-23T20:43:23.751Z,100.00
2023-05-23T20:45:51.798Z,100.00
2023-05-23T20:48:19.584Z,100.00
2023-05-23T20:50:47.594Z,100.00
2023-05-23T20:53:15.806Z,100.00
2023-05-23T20:55:43.914Z,100.00
2023-05-23T20:58:11.802Z,100.00
2023-05-23T21:00:41.403Z,100.00
2023-05-23T21:03:09.360Z,100.00
2023-05-23T21:05:37.185Z,100.00
2023-05-23T21:08:05.672Z,100.00
2023-05-23T21:10:34.001Z,100.00
2023-05-23T21:13:02.062Z,100.00
2023-05-23T21:15:30.215Z,100.00
2023-05-23T21:17:59.374Z,100.00
2023-05-23T21:20:28.971Z,100.00
2023-05-23T21:22:57.419Z,100.00
2023-05-23T21:25:25.227Z,100.00
2023-05-23T21:27:52.976Z,100.00
2023-05-23T21:30:21.579Z,100.00
2023-05-23T21:32:49.527Z,100.00
2023-05-23T21:35:18.765Z,100.00
2023-05-23T21:37:46.795Z,100.00
2023-05-23T21:40:14.626Z,100.00
2023-05-23T21:42:42.478Z,100.00
2023-05-23T21:45:11.434Z,100.00
2023-05-23T21:47:39.280Z,100.00
2023-05-23T21:50:08.409Z,100.00
2023-05-23T21:52:37.772Z,100.00
2023-05-23T21:55:06.219Z,100.00
2023-05-23T21:57:33.999Z,100.00
2023-05-23T22:00:02.009Z,100.00
2023-05-23T22:02:29.849Z,100.00
2023-05-23T22:04:57.712Z,100.00
2023-05-23T22:07:26.085Z,100.00
2023-05-23T22:09:56.274Z,100.00
2023-05-23T22:12:24.077Z,100.00
2023-05-23T22:14:52.151Z,100.00
2023-05-23T22:17:22.540Z,100.00
2023-05-23T22:19:51.980Z,100.00
2023-05-23T22:22:20.297Z,100.00
2023-05-23T22:24:48.084Z,100.00
2023-05-23T22:27:17.262Z,100.00
2023-05-23T22:29:45.342Z,100.00
2023-05-23T22:32:13.464Z,100.00
2023-05-23T22:34:41.276Z,100.00
2023-05-23T22:37:09.650Z,100.00
2023-05-23T22:39:37.464Z,100.00
2023-05-23T22:42:06.339Z,100.00
2023-05-23T22:44:35.752Z,100.00
2023-05-23T22:47:04.612Z,100.00
2023-05-23T22:49:32.443Z,100.00
2023-05-23T22:52:01.259Z,100.00
2023-05-23T22:54:29.010Z,100.00
2023-05-23T22:56:56.799Z,100.00
2023-05-23T22:59:24.795Z,100.00
2023-05-23T23:01:53.948Z,100.00
2023-05-23T23:04:23.638Z,100.00
2023-05-23T23:06:53.764Z,100.00
2023-05-23T23:09:21.701Z,100.00
2023-05-23T23:11:49.483Z,100.00
2023-05-23T23:14:17.490Z,100.00
2023-05-23T23:16:46.313Z,100.00
2023-05-23T23:19:15.563Z,100.00
2023-05-23T23:21:43.654Z,100.00
2023-05-23T23:24:11.991Z,100.00
2023-05-23T23:26:39.843Z,100.00
2023-05-23T23:29:08.353Z,100.00
2023-05-23T23:31:36.402Z,100.00
2023-05-23T23:34:04.546Z,100.00
2023-05-23T23:36:33.904Z,100.00
2023-05-23T23:39:01.674Z,100.00
2023-05-23T23:41:29.430Z,100.00
2023-05-23T23:43:57.437Z,100.00
2023-05-23T23:46:25.298Z,100.00
2023-05-23T23:48:53.132Z,100.00
2023-05-23T23:51:21.148Z,100.00
2023-05-23T23:53:53.209Z,100.00
2023-05-23T23:56:22.273Z,100.00
2023-05-23T23:58:50.315Z,100.00
